createdAt,value
2023-04-04T00:00:20.664Z,2.00
2023-04-04T00:02:47.220Z,1.43
2023-04-04T00:05:13.920Z,1.45
2023-04-04T00:07:40.417Z,1.70
2023-04-04T00:10:07.329Z,1.85
2023-04-04T00:12:33.907Z,1.60
2023-04-04T00:15:00.440Z,1.27
2023-04-04T00:17:27.042Z,1.60
2023-04-04T00:19:53.571Z,1.73
2023-04-04T00:22:20.353Z,1.52
2023-04-04T00:24:46.831Z,1.80
2023-04-04T00:27:13.283Z,1.60
2023-04-04T00:29:40.021Z,2.00
2023-04-04T00:32:06.591Z,1.95
2023-04-04T00:34:33.372Z,1.95
2023-04-04T00:36:59.859Z,1.60
2023-04-04T00:39:27.126Z,1.67
2023-04-04T00:41:53.870Z,1.70
2023-04-04T00:44:20.481Z,1.75
2023-04-04T00:46:47.099Z,1.60
2023-04-04T00:49:13.634Z,2.00
2023-04-04T00:51:40.151Z,1.63
2023-04-04T00:54:06.894Z,2.03
2023-04-04T00:56:37.403Z,1.50
2023-04-04T00:59:03.960Z,1.75
2023-04-04T01:01:31.960Z,1.95
2023-04-04T01:03:58.940Z,1.53
2023-04-04T01:06:26.505Z,1.83
2023-04-04T01:08:54.360Z,1.65
2023-04-04T01:11:21.351Z,1.70
2023-04-04T01:13:48.148Z,2.08
2023-04-04T01:16:16.860Z,1.70
2023-04-04T01:18:44.414Z,1.90
2023-04-04T01:21:13.282Z,1.92
2023-04-04T01:23:44.850Z,1.90
2023-04-04T01:26:12.550Z,1.70
2023-04-04T01:28:39.048Z,2.20
2023-04-04T01:31:14.194Z,1.83
2023-04-04T01:33:49.275Z,1.42
2023-04-04T01:36:30.575Z,2.05
2023-04-04T01:39:18.250Z,1.98
2023-04-04T01:41:48.276Z,1.57
2023-04-04T01:44:18.938Z,1.83
2023-04-04T01:46:45.460Z,1.42
2023-04-04T01:49:12.574Z,2.20
2023-04-04T01:51:40.741Z,1.77
2023-04-04T01:54:08.060Z,2.00
2023-04-04T01:56:34.945Z,1.70
2023-04-04T01:59:01.545Z,2.33
2023-04-04T02:01:28.517Z,1.75
2023-04-04T02:03:55.115Z,1.85
2023-04-04T02:06:21.587Z,1.60
2023-04-04T02:08:48.372Z,2.70
2023-04-04T02:11:15.672Z,1.95
2023-04-04T02:13:44.358Z,2.05
2023-04-04T02:16:13.652Z,1.83
2023-04-04T02:18:40.357Z,2.13
2023-04-04T02:21:07.735Z,2.08
2023-04-04T02:23:34.247Z,2.08
2023-04-04T02:26:00.953Z,1.92
2023-04-04T02:28:31.338Z,2.00
2023-04-04T02:31:02.368Z,1.93
2023-04-04T02:33:29.562Z,2.20
2023-04-04T02:35:59.028Z,2.20
2023-04-04T02:38:26.288Z,1.85
2023-04-04T02:40:53.219Z,1.75
2023-04-04T02:43:21.034Z,2.17
2023-04-04T02:45:49.292Z,1.90
2023-04-04T02:48:33.821Z,2.20
2023-04-04T02:51:02.089Z,1.88
2023-04-04T02:53:29.577Z,2.03
2023-04-04T02:56:05.206Z,2.00
2023-04-04T02:58:32.588Z,2.22
2023-04-04T03:00:59.175Z,2.15
2023-04-04T03:03:29.731Z,1.98
2023-04-04T03:05:57.229Z,2.83
2023-04-04T03:08:23.723Z,1.90
2023-04-04T03:10:50.382Z,1.83
2023-04-04T03:13:17.165Z,2.08
2023-04-04T03:15:47.430Z,2.20
2023-04-04T03:18:15.527Z,2.25
2023-04-04T03:20:42.433Z,2.60
2023-04-04T03:23:09.228Z,2.13
2023-04-04T03:25:36.949Z,2.10
2023-04-04T03:28:10.000Z,2.20
2023-04-04T03:30:36.559Z,2.40
2023-04-04T03:33:07.656Z,2.40
2023-04-04T03:35:40.662Z,2.03
2023-04-04T03:38:10.742Z,2.20
2023-04-04T03:40:37.421Z,2.40
2023-04-04T03:43:10.442Z,2.30
2023-04-04T03:45:37.194Z,2.20
2023-04-04T03:48:03.957Z,2.20
2023-04-04T03:50:31.647Z,2.10
2023-04-04T03:52:58.508Z,2.47
2023-04-04T03:55:26.328Z,2.75
2023-04-04T03:57:58.900Z,2.33
2023-04-04T04:00:26.165Z,2.25
2023-04-04T04:02:52.891Z,2.30
2023-04-04T04:05:19.822Z,2.25
2023-04-04T04:07:46.684Z,2.80
2023-04-04T04:10:14.183Z,2.57
2023-04-04T04:12:40.908Z,2.28
2023-04-04T04:15:08.174Z,2.72
2023-04-04T04:17:38.482Z,2.55
2023-04-04T04:20:05.826Z,2.67
2023-04-04T04:22:38.157Z,2.60
2023-04-04T04:25:05.288Z,2.50
2023-04-04T04:27:32.783Z,2.60
2023-04-04T04:29:59.588Z,2.15
2023-04-04T04:32:27.337Z,2.53
2023-04-04T04:34:54.413Z,2.70
2023-04-04T04:37:27.110Z,2.70
2023-04-04T04:39:55.692Z,2.20
2023-04-04T04:42:33.394Z,2.70
2023-04-04T04:45:02.066Z,2.33
2023-04-04T04:47:31.916Z,2.70
2023-04-04T04:50:01.214Z,2.17
2023-04-04T04:52:37.202Z,2.30
2023-04-04T04:55:04.961Z,2.35
2023-04-04T04:57:34.278Z,2.63
2023-04-04T05:00:04.610Z,2.83
2023-04-04T05:02:31.404Z,3.05
2023-04-04T05:04:58.998Z,2.70
2023-04-04T05:07:26.474Z,2.95
2023-04-04T05:09:54.177Z,2.63
2023-04-04T05:12:22.319Z,2.60
2023-04-04T05:14:52.086Z,2.72
2023-04-04T05:17:18.951Z,2.88
2023-04-04T05:19:46.223Z,2.60
2023-04-04T05:22:16.804Z,3.40
2023-04-04T05:24:47.408Z,2.23
2023-04-04T05:27:17.612Z,3.10
2023-04-04T05:29:48.495Z,2.60
2023-04-04T05:32:15.985Z,2.92
2023-04-04T05:34:48.841Z,2.90
2023-04-04T05:37:18.133Z,2.90
2023-04-04T05:39:48.864Z,2.83
2023-04-04T05:42:16.874Z,2.92
2023-04-04T05:44:48.018Z,2.60
2023-04-04T05:47:15.619Z,2.88
2023-04-04T05:49:45.516Z,3.20
2023-04-04T05:52:12.450Z,2.53
2023-04-04T05:54:39.128Z,3.20
2023-04-04T05:57:12.037Z,3.33
2023-04-04T05:59:50.079Z,3.20
2023-04-04T06:02:17.410Z,2.97
2023-04-04T06:04:49.520Z,3.10
2023-04-04T06:07:21.731Z,2.90
2023-04-04T06:09:50.573Z,3.50
2023-04-04T06:12:17.389Z,4.05
2023-04-04T06:14:43.841Z,3.30
2023-04-04T06:17:11.193Z,3.58
2023-04-04T06:19:37.759Z,3.30
2023-04-04T06:22:04.294Z,3.70
2023-04-04T06:24:35.009Z,3.33
2023-04-04T06:27:03.559Z,3.50
2023-04-04T06:29:31.405Z,3.00
2023-04-04T06:32:00.954Z,3.13
2023-04-04T06:34:39.677Z,2.90
2023-04-04T06:37:06.944Z,3.40
2023-04-04T06:39:41.065Z,2.97
2023-04-04T06:42:15.193Z,3.10
2023-04-04T06:44:47.507Z,2.92
2023-04-04T06:47:14.914Z,2.97
2023-04-04T06:49:41.607Z,2.60
2023-04-04T06:52:08.132Z,3.13
2023-04-04T06:54:35.830Z,2.70
2023-04-04T06:57:02.959Z,2.58
2023-04-04T06:59:29.548Z,2.75
2023-04-04T07:01:57.516Z,2.40
2023-04-04T07:04:24.312Z,2.80
2023-04-04T07:06:50.859Z,3.15
2023-04-04T07:09:28.053Z,2.72
2023-04-04T07:11:56.223Z,2.70
2023-04-04T07:14:25.274Z,2.10
2023-04-04T07:16:53.246Z,2.27
2023-04-04T07:19:19.850Z,2.38
2023-04-04T07:21:46.358Z,2.30
2023-04-04T07:24:12.866Z,2.67
2023-04-04T07:26:40.869Z,2.75
2023-04-04T07:29:07.925Z,2.17
2023-04-04T07:31:34.492Z,2.30
2023-04-04T07:34:01.412Z,2.40
2023-04-04T07:36:28.011Z,2.28
2023-04-04T07:38:54.568Z,2.10
2023-04-04T07:41:22.531Z,2.07
2023-04-04T07:43:49.760Z,2.00
2023-04-04T07:46:16.804Z,2.30
2023-04-04T07:48:43.735Z,2.20
2023-04-04T07:51:10.304Z,2.33
2023-04-04T07:53:36.759Z,2.17
2023-04-04T07:56:09.219Z,2.00
2023-04-04T07:58:36.608Z,2.25
2023-04-04T08:01:03.631Z,1.98
2023-04-04T08:03:30.723Z,2.72
2023-04-04T08:05:57.345Z,2.40
2023-04-04T08:08:23.918Z,1.80
2023-04-04T08:10:50.442Z,1.90
2023-04-04T08:13:17.045Z,1.67
2023-04-04T08:15:43.911Z,1.90
2023-04-04T08:18:10.502Z,1.87
2023-04-04T08:20:37.928Z,1.90
2023-04-04T08:23:04.766Z,1.50
2023-04-04T08:25:31.515Z,1.50
2023-04-04T08:27:58.136Z,1.65
2023-04-04T08:30:24.655Z,1.27
2023-04-04T08:32:51.297Z,1.80
2023-04-04T08:35:17.855Z,1.75
2023-04-04T08:37:47.698Z,1.27
2023-04-04T08:40:14.828Z,1.75
2023-04-04T08:42:44.265Z,1.37
2023-04-04T08:45:17.749Z,1.10
2023-04-04T08:47:45.315Z,0.70
2023-04-04T08:50:12.172Z,0.82
2023-04-04T08:52:40.512Z,1.00
2023-04-04T08:55:08.220Z,0.80
2023-04-04T08:57:35.348Z,1.25
2023-04-04T09:00:06.299Z,0.98
2023-04-04T09:02:58.122Z,0.85
2023-04-04T09:05:25.640Z,0.65
2023-04-04T09:07:53.538Z,0.90
2023-04-04T09:10:21.046Z,0.80
2023-04-04T09:12:48.772Z,0.70
2023-04-04T09:15:15.943Z,0.52
2023-04-04T09:17:42.693Z,0.50
2023-04-04T09:20:38.801Z,0.50
2023-04-04T09:23:08.082Z,0.50
2023-04-04T09:25:35.750Z,0.70
2023-04-04T09:28:05.503Z,0.60
2023-04-04T09:30:33.978Z,0.60
2023-04-04T09:33:02.448Z,0.80
2023-04-04T09:35:29.013Z,0.68
2023-04-04T09:37:56.010Z,0.65
2023-04-04T09:40:23.954Z,0.68
2023-04-04T09:42:50.591Z,1.13
2023-04-04T09:45:29.435Z,0.73
2023-04-04T09:47:58.762Z,1.13
2023-04-04T09:50:25.883Z,0.70
2023-04-04T09:52:52.778Z,1.10
2023-04-04T09:55:19.638Z,0.90
2023-04-04T09:57:47.255Z,1.30
2023-04-04T10:00:19.538Z,1.05
2023-04-04T10:02:47.967Z,1.00
2023-04-04T10:05:14.757Z,1.10
2023-04-04T10:07:43.568Z,1.17
2023-04-04T10:10:10.508Z,1.13
2023-04-04T10:12:37.701Z,0.95
2023-04-04T10:15:04.818Z,0.80
2023-04-04T10:17:36.705Z,0.90
2023-04-04T10:20:10.446Z,1.13
2023-04-04T10:22:38.709Z,0.93
2023-04-04T10:25:06.047Z,1.15
2023-04-04T10:27:33.152Z,1.23
2023-04-04T10:30:03.241Z,1.15
2023-04-04T10:32:50.945Z,1.10
2023-04-04T10:35:18.777Z,0.97
2023-04-04T10:37:54.413Z,0.95
2023-04-04T10:40:24.318Z,1.20
2023-04-04T10:42:50.927Z,1.20
2023-04-04T10:45:21.574Z,1.10
2023-04-04T10:47:49.228Z,1.40
2023-04-04T10:50:15.907Z,1.10
2023-04-04T10:52:44.387Z,0.93
2023-04-04T10:55:12.904Z,1.20
2023-04-04T10:57:41.851Z,1.00
2023-04-04T11:00:18.748Z,1.10
2023-04-04T11:03:01.119Z,1.20
2023-04-04T11:05:34.230Z,1.13
2023-04-04T11:08:08.556Z,1.00
2023-04-04T11:10:43.713Z,1.00
2023-04-04T11:13:16.648Z,1.30
2023-04-04T11:15:50.833Z,1.23
2023-04-04T11:18:32.595Z,1.08
2023-04-04T11:21:03.697Z,1.42
2023-04-04T11:23:59.293Z,1.02
2023-04-04T11:26:26.153Z,1.03
2023-04-04T11:28:52.635Z,1.40
2023-04-04T11:31:19.417Z,1.67
2023-04-04T11:33:57.827Z,1.20
2023-04-04T11:36:45.558Z,1.15
2023-04-04T11:39:21.030Z,0.90
2023-04-04T11:42:14.049Z,1.00
2023-04-04T11:44:55.713Z,1.00
2023-04-04T11:47:25.632Z,1.00
2023-04-04T11:49:54.830Z,1.50
2023-04-04T11:52:23.687Z,1.27
2023-04-04T11:54:50.262Z,1.48
2023-04-04T11:57:18.791Z,1.30
2023-04-04T11:59:50.570Z,1.25
2023-04-04T12:02:21.768Z,1.92
2023-04-04T12:04:51.621Z,1.40
2023-04-04T12:07:18.384Z,1.13
2023-04-04T12:09:45.343Z,1.17
2023-04-04T12:12:18.751Z,1.52
2023-04-04T12:14:45.241Z,1.20
2023-04-04T12:17:11.962Z,1.27
2023-04-04T12:19:40.111Z,1.25
2023-04-04T12:22:08.262Z,1.75
2023-04-04T12:24:35.770Z,1.20
2023-04-04T12:27:03.582Z,1.20
2023-04-04T12:29:37.408Z,1.50
2023-04-04T12:32:05.879Z,1.30
2023-04-04T12:34:33.806Z,1.45
2023-04-04T12:37:02.084Z,1.42
2023-04-04T12:39:29.980Z,1.73
2023-04-04T12:42:02.777Z,1.40
2023-04-04T12:44:36.564Z,1.75
2023-04-04T12:47:08.034Z,1.70
2023-04-04T12:49:39.983Z,1.50
2023-04-04T12:52:08.903Z,1.08
2023-04-04T12:54:39.838Z,1.30
2023-04-04T12:57:08.070Z,1.67
2023-04-04T12:59:36.224Z,1.13
2023-04-04T13:02:07.144Z,1.52
2023-04-04T13:04:34.097Z,1.55
2023-04-04T13:07:02.678Z,1.70
2023-04-04T13:09:29.170Z,1.50
2023-04-04T13:12:03.718Z,1.35
2023-04-04T13:14:59.061Z,1.52
2023-04-04T13:17:26.396Z,1.55
2023-04-04T13:19:53.112Z,1.53
2023-04-04T13:22:19.639Z,1.60
2023-04-04T13:24:46.277Z,1.40
2023-04-04T13:27:12.790Z,1.63
2023-04-04T13:29:39.308Z,1.80
2023-04-04T13:32:05.805Z,1.60
2023-04-04T13:34:32.729Z,1.52
2023-04-04T13:36:59.325Z,1.50
2023-04-04T13:39:25.829Z,1.70
2023-04-04T13:41:52.464Z,1.50
2023-04-04T13:44:19.013Z,1.80
2023-04-04T13:46:45.591Z,1.63
2023-04-04T13:49:12.182Z,1.45
2023-04-04T13:51:38.814Z,1.38
2023-04-04T13:54:05.303Z,2.00
2023-04-04T13:56:31.738Z,1.60
2023-04-04T13:58:58.283Z,1.50
2023-04-04T14:01:24.824Z,1.30
2023-04-04T14:03:51.486Z,1.60
2023-04-04T14:06:18.017Z,1.50
2023-04-04T14:08:45.533Z,1.50
2023-04-04T14:11:13.102Z,1.83
2023-04-04T14:13:39.615Z,1.80
2023-04-04T14:16:08.352Z,1.80
2023-04-04T14:18:34.997Z,1.40
2023-04-04T14:21:02.904Z,1.23
2023-04-04T14:23:32.864Z,1.33
2023-04-04T14:25:59.484Z,1.60
2023-04-04T14:28:26.019Z,1.27
2023-04-04T14:30:52.493Z,1.92
2023-04-04T14:33:18.959Z,1.80
2023-04-04T14:35:45.628Z,1.48
2023-04-04T14:38:12.128Z,1.73
2023-04-04T14:40:38.600Z,1.60
2023-04-04T14:43:05.624Z,2.00
2023-04-04T14:45:33.073Z,2.37
2023-04-04T14:47:59.690Z,1.73
2023-04-04T14:50:26.349Z,2.13
2023-04-04T14:52:53.037Z,1.77
2023-04-04T14:55:20.554Z,1.77
2023-04-04T14:58:01.358Z,2.17
2023-04-04T15:00:29.298Z,2.17
2023-04-04T15:02:56.398Z,2.05
2023-04-04T15:05:24.996Z,1.90
2023-04-04T15:07:51.476Z,1.80
2023-04-04T15:10:17.933Z,1.60
2023-04-04T15:12:44.613Z,1.70
2023-04-04T15:15:13.161Z,1.70
2023-04-04T15:17:39.843Z,1.90
2023-04-04T15:20:07.210Z,1.90
2023-04-04T15:22:33.961Z,1.60
2023-04-04T15:25:00.737Z,1.80
2023-04-04T15:27:27.346Z,1.90
2023-04-04T15:29:54.069Z,1.40
2023-04-04T15:32:20.708Z,2.08
2023-04-04T15:34:47.151Z,2.00
2023-04-04T15:37:13.647Z,1.73
2023-04-04T15:39:51.849Z,1.60
2023-04-04T15:42:19.821Z,1.67
2023-04-04T15:44:46.571Z,1.85
2023-04-04T15:47:13.144Z,1.70
2023-04-04T15:49:39.609Z,1.42
2023-04-04T15:52:06.112Z,1.63
2023-04-04T15:54:32.656Z,2.00
2023-04-04T15:56:59.169Z,1.90
2023-04-04T15:59:26.379Z,1.77
2023-04-04T16:01:53.163Z,2.05
2023-04-04T16:04:19.769Z,1.80
2023-04-04T16:06:46.300Z,1.80
2023-04-04T16:09:12.806Z,1.77
2023-04-04T16:11:39.724Z,1.77
2023-04-04T16:14:09.232Z,1.50
2023-04-04T16:16:36.427Z,1.75
2023-04-04T16:19:02.934Z,1.73
2023-04-04T16:21:30.987Z,2.13
2023-04-04T16:23:57.628Z,1.60
2023-04-04T16:26:24.258Z,1.88
2023-04-04T16:28:50.796Z,1.83
2023-04-04T16:31:17.369Z,2.30
2023-04-04T16:33:44.079Z,1.90
2023-04-04T16:36:10.689Z,1.80
2023-04-04T16:38:37.205Z,1.55
2023-04-04T16:41:04.911Z,1.30
2023-04-04T16:43:31.728Z,1.65
2023-04-04T16:45:58.474Z,2.03
2023-04-04T16:48:24.910Z,2.40
2023-04-04T16:50:51.376Z,2.03
2023-04-04T16:53:17.849Z,1.98
2023-04-04T16:55:44.355Z,1.83
2023-04-04T16:58:10.855Z,1.95
2023-04-04T17:00:37.854Z,2.00
2023-04-04T17:03:04.595Z,1.63
2023-04-04T17:05:31.183Z,1.70
2023-04-04T17:07:57.689Z,1.98
2023-04-04T17:10:24.226Z,2.00
2023-04-04T17:12:51.394Z,1.93
2023-04-04T17:15:18.565Z,1.80
2023-04-04T17:17:45.344Z,2.10
2023-04-04T17:20:18.031Z,1.83
2023-04-04T17:22:45.776Z,1.85
2023-04-04T17:25:12.227Z,2.00
2023-04-04T17:27:38.758Z,2.17
2023-04-04T17:30:05.839Z,1.85
2023-04-04T17:32:33.338Z,1.65
2023-04-04T17:35:00.248Z,2.03
2023-04-04T17:37:28.522Z,1.80
2023-04-04T17:39:55.190Z,1.70
2023-04-04T17:42:21.949Z,2.08
2023-04-04T17:44:48.567Z,2.47
2023-04-04T17:47:15.075Z,2.15
2023-04-04T17:49:41.689Z,2.20
2023-04-04T17:52:08.827Z,2.25
2023-04-04T17:54:36.351Z,2.30
2023-04-04T17:57:03.466Z,3.20
2023-04-04T17:59:30.220Z,2.72
2023-04-04T18:01:56.848Z,2.13
2023-04-04T18:04:25.427Z,2.80
2023-04-04T18:06:52.273Z,2.50
2023-04-04T18:09:18.830Z,2.47
2023-04-04T18:11:45.674Z,2.60
2023-04-04T18:14:12.297Z,2.57
2023-04-04T18:16:41.038Z,2.58
2023-04-04T18:19:09.512Z,2.40
2023-04-04T18:21:36.663Z,2.85
2023-04-04T18:24:05.257Z,2.97
2023-04-04T18:26:32.068Z,2.30
2023-04-04T18:28:58.854Z,3.08
2023-04-04T18:31:28.505Z,2.42
2023-04-04T18:33:55.599Z,3.63
2023-04-04T18:36:22.386Z,2.67
2023-04-04T18:38:50.414Z,2.80
2023-04-04T18:41:17.438Z,3.10
2023-04-04T18:43:44.217Z,2.60
2023-04-04T18:46:10.762Z,3.08
2023-04-04T18:48:37.489Z,3.60
2023-04-04T18:51:04.398Z,3.43
2023-04-04T18:53:30.953Z,3.65
2023-04-04T18:55:58.444Z,3.50
2023-04-04T18:58:25.971Z,3.47
2023-04-04T19:00:58.401Z,2.95
2023-04-04T19:03:26.101Z,2.90
2023-04-04T19:05:53.821Z,2.95
2023-04-04T19:08:20.422Z,2.47
2023-04-04T19:10:49.690Z,2.90
2023-04-04T19:13:17.300Z,2.83
2023-04-04T19:15:44.426Z,2.67
2023-04-04T19:18:11.677Z,3.67
2023-04-04T19:20:38.317Z,3.25
2023-04-04T19:23:04.838Z,3.13
2023-04-04T19:25:31.415Z,3.35
2023-04-04T19:27:58.046Z,3.10
2023-04-04T19:30:54.246Z,3.00
2023-04-04T19:33:26.009Z,3.42
2023-04-04T19:36:18.928Z,3.13
2023-04-04T19:38:45.649Z,3.00
2023-04-04T19:41:32.873Z,3.77
2023-04-04T19:43:59.817Z,3.38
2023-04-04T19:46:28.469Z,3.13
2023-04-04T19:48:56.556Z,3.20
2023-04-04T19:51:22.983Z,3.70
2023-04-04T19:53:51.299Z,3.17
2023-04-04T19:56:18.974Z,3.97
2023-04-04T19:58:48.193Z,4.65
2023-04-04T20:01:22.029Z,3.20
2023-04-04T20:03:48.861Z,3.80
2023-04-04T20:06:29.727Z,3.83
2023-04-04T20:08:58.136Z,3.78
2023-04-04T20:11:33.129Z,3.80
2023-04-04T20:14:06.122Z,3.40
2023-04-04T20:16:33.450Z,4.03
2023-04-04T20:19:01.641Z,3.80
2023-04-04T20:21:31.430Z,4.25
2023-04-04T20:24:04.509Z,4.70
2023-04-04T20:26:54.476Z,4.05
2023-04-04T20:29:30.550Z,4.38
2023-04-04T20:31:59.821Z,4.60
2023-04-04T20:34:37.470Z,4.03
2023-04-04T20:37:09.359Z,3.50
2023-04-04T20:39:46.266Z,3.15
2023-04-04T20:42:31.147Z,3.30
2023-04-04T20:45:10.022Z,3.10
2023-04-04T20:47:50.860Z,3.00
2023-04-04T20:50:17.467Z,4.35
2023-04-04T20:52:49.888Z,3.58
2023-04-04T20:55:20.366Z,3.47
2023-04-04T20:57:47.598Z,4.90
2023-04-04T21:00:23.436Z,3.80
2023-04-04T21:02:49.912Z,3.60
2023-04-04T21:05:27.984Z,3.42
2023-04-04T21:07:54.669Z,3.00
2023-04-04T21:10:23.559Z,3.87
2023-04-04T21:12:51.202Z,3.55
2023-04-04T21:15:24.253Z,3.85
2023-04-04T21:17:51.050Z,3.50
2023-04-04T21:20:43.197Z,3.17
2023-04-04T21:23:31.646Z,2.93
2023-04-04T21:26:09.745Z,3.05
2023-04-04T21:28:42.914Z,3.20
2023-04-04T21:31:14.507Z,3.53
2023-04-04T21:33:45.778Z,2.85
2023-04-04T21:36:28.868Z,2.70
2023-04-04T21:38:57.837Z,2.95
2023-04-04T21:41:34.186Z,2.92
2023-04-04T21:44:02.331Z,3.25
2023-04-04T21:46:32.646Z,2.70
2023-04-04T21:48:59.454Z,2.80
2023-04-04T21:51:26.371Z,2.88
2023-04-04T21:53:53.369Z,2.58
2023-04-04T21:56:19.911Z,2.70
2023-04-04T21:58:46.500Z,3.45
2023-04-04T22:01:13.026Z,2.80
2023-04-04T22:03:40.614Z,2.60
2023-04-04T22:06:07.279Z,2.50
2023-04-04T22:08:33.901Z,2.80
2023-04-04T22:11:02.181Z,2.63
2023-04-04T22:13:42.871Z,2.90
2023-04-04T22:16:15.883Z,2.78
2023-04-04T22:18:47.377Z,3.10
2023-04-04T22:21:15.133Z,3.00
2023-04-04T22:23:42.294Z,2.72
2023-04-04T22:26:20.187Z,3.10
2023-04-04T22:28:48.131Z,3.42
2023-04-04T22:31:15.618Z,2.90
2023-04-04T22:33:42.124Z,2.97
2023-04-04T22:36:09.942Z,3.47
2023-04-04T22:38:39.318Z,3.33
2023-04-04T22:41:06.189Z,3.20
2023-04-04T22:43:32.688Z,3.13
2023-04-04T22:45:59.301Z,2.70
2023-04-04T22:48:25.866Z,3.30
2023-04-04T22:50:55.698Z,3.00
2023-04-04T22:53:25.958Z,3.75
2023-04-04T22:55:53.741Z,3.45
2023-04-04T22:58:21.503Z,3.10
2023-04-04T23:00:48.399Z,3.17
2023-04-04T23:03:14.894Z,3.47
2023-04-04T23:05:41.867Z,3.28
2023-04-04T23:08:08.370Z,3.20
2023-04-04T23:10:34.933Z,3.72
2023-04-04T23:13:01.485Z,3.20
2023-04-04T23:15:28.790Z,2.63
2023-04-04T23:17:55.602Z,3.65
2023-04-04T23:20:22.314Z,3.13
2023-04-04T23:22:48.947Z,3.13
2023-04-04T23:25:15.699Z,3.25
2023-04-04T23:27:42.129Z,3.17
2023-04-04T23:30:09.781Z,3.20
2023-04-04T23:32:36.768Z,3.22
2023-04-04T23:35:03.417Z,3.38
2023-04-04T23:37:29.925Z,3.47
2023-04-04T23:39:56.456Z,3.40
2023-04-04T23:42:23.220Z,3.33
2023-04-04T23:44:49.765Z,3.45
2023-04-04T23:47:16.538Z,3.08
2023-04-04T23:49:43.094Z,3.50
2023-04-04T23:52:09.589Z,3.77
2023-04-04T23:54:36.298Z,3.45
2023-04-04T23:57:02.810Z,3.33
2023-04-04T23:59:29.629Z,3.03
